Home > Products > Valid Products > TAF

000
FTUS45 KGJT 241125
TAFGJT
TAF
KGJT 241125Z 2412/2512 12004KT P6SM SKC
     FM241800 31007KT P6SM SCT200
     FM250300 06005KT P6SM FEW200
     FM250600 11008KT P6SM SKC=



000
FTUS45 KGJT 240520
TAFGJT
TAF
KGJT 240520Z 2406/2506 32007KT P6SM SKC
     FM241200 11006KT P6SM FEW250
     FM241800 29010KT P6SM SCT150 SCT250
     FM250300 10005KT P6SM FEW200=



000
FTUS45 KGJT 232320
TAFGJT
TAF
KGJT 232320Z 2400/2424 28020G30KT P6SM SCT110 BKN150
     FM240200 35010KT P6SM SCT110
     FM240500 09005KT P6SM SKC
     FM241200 11006KT P6SM FEW250
     FM241800 29010KT P6SM BKN200=



000
FTUS45 KGJT 231726
TAFGJT
TAF
KGJT 231726Z 2318/2418 28015G22KT P6SM SCT110 BKN150
     FM240200 35010KT P6SM SCT110
     FM240500 09005KT P6SM SKC
     FM241200 11006KT P6SM FEW250=



000
FTUS45 KGJT 231504 AAC
TAFGJT
TAF AMD
KGJT 231504Z 2315/2412 30015G25KT P6SM BKN150
     FM240100 31012G20KT P6SM FEW110
     FM240400 31005KT P6SM SKC=



000
FTUS45 KGJT 231131
TAFGJT
TAF
KGJT 231131Z 2312/2412 27012G20KT P6SM VCSH BKN120
     FM231400 28010KT P6SM SCT120 BKN200
     FM231600 29015G25KT P6SM BKN110
     FM240100 31012G20KT P6SM FEW110
     FM240400 31005KT P6SM SKC=



000
FTUS45 KGJT 230533
TAFGJT
TAF
KGJT 230533Z 2306/2406 22020G30KT P6SM SCT070CB OVC110
     FM230700 28012G22KT P6SM VCSH BKN090
     FM231300 28010KT P6SM SCT050 BKN200
      TEMPO 2316/2320 28015G30KT
     FM240200 06005KT P6SM SKC=



000
FTUS45 KGJT 230517 AAC
TAFGJT
TAF AMD
KGJT 230517Z 2305/2324 22020G30KT P6SM SCT070CB OVC110
     FM230700 28012G22KT P6SM VCSH BKN090
     FM231300 28010KT P6SM SCT050 BKN200
      TEMPO 2316/2320 28015G30KT=



000
FTUS45 KGJT 222336
TAFGJT
TAF
KGJT 222336Z 2300/2324 22008KT P6SM SCT070 OVC110 WS020/22030KT
      TEMPO 2300/2304 22015G35KT
     FM230400 28012G22KT P6SM VCSH BKN090
     FM231300 28010KT P6SM SCT050 BKN200
      TEMPO 2316/2320 28015G30KT=



000
FTUS45 KGJT 222303 AAC
TAFGJT
TAF AMD
KGJT 222303Z 2223/2318 22008KT P6SM SCT070 OVC110 WS020/22030KT
      TEMPO 2300/2304 22015G35KT
     FM230400 28012G22KT P6SM VCSH BKN090
     FM231300 28010KT P6SM SCT050 BKN200=



000
FTUS45 KGJT 221903 AAB
TAFGJT
TAF AMD
KGJT 221903Z 2219/2318 22020G37KT P6SM SCT110 BKN200
     FM230800 28012G22KT P6SM VCSH BKN090
     FM231300 28010KT P6SM SCT050 BKN200=



000
FTUS45 KGJT 221801 AAB
TAFGJT
TAF AMD
KGJT 221801Z 2218/2318 16017G27KT P6SM SCT090
     FM222200 20023G33KT P6SM SCT090 BKN120
     FM230800 28012G22KT P6SM VCSH BKN090
     FM231300 28010KT P6SM SCT050 BKN200=



000
FTUS45 KGJT 221733
TAFGJT
TAF
KGJT 221733Z 2218/2318 15017KT P6SM SCT090
     FM222200 20023G33KT P6SM SCT090 BKN120
     FM230800 28012G22KT P6SM VCSH BKN090
     FM231300 28010KT P6SM SCT050 BKN200=



000
FTUS45 KGJT 221127
TAFGJT
TAF
KGJT 221127Z 2212/2312 11018KT P6SM SCT110 BKN180
     FM221700 17018G28KT P6SM SCT110 BKN180
     FM222200 20023G33KT P6SM VCSH SCT090 BKN120
     FM230800 28012G22KT P6SM VCSH BKN090=



000
FTUS45 KGJT 221127
TAFGJT
TAF

27=



000
FTUS45 KGJT 220520
TAFGJT
TAF
KGJT 220520Z 2206/2306 11006KT P6SM BKN250
     FM220800 12011KT P6SM BKN250
     FM221200 12012G20KT P6SM BKN250
     FM221600 17014G24KT P6SM BKN250
     FM222200 20022G32KT P6SM FEW090 BKN120=



000
FTUS45 KGJT 212339
TAFGJT
TAF
KGJT 212339Z 2200/2224 32006KT P6SM FEW090 BKN250
     FM220200 11006KT P6SM BKN250
     FM220800 12011KT P6SM BKN250
     FM221200 12012G20KT P6SM BKN250
     FM221600 17014G24KT P6SM BKN250=



000
FTUS45 KGJT 211725
TAFGJT
TAF
KGJT 211725Z 2118/2218 VRB04KT P6SM FEW090 FEW250
     FM211900 29007KT P6SM FEW090 FEW250
     FM220200 11006KT P6SM SCT250
     FM220800 12011KT P6SM SCT250
     FM221200 12012G20KT P6SM BKN250
     FM221600 17014G24KT P6SM BKN250=



    US Dept of Commerce
    National Oceanic and Atmospheric Administration
    National Weather Service
    1325 East West Highway
    Silver Spring, MD 20910
    Page Author: NWS Internet Services Team
Disclaimer
Information Quality
Credits
Glossary
Privacy Policy
Freedom of Information Act (FOIA)
About Us
Career Opportunities